Tiempo atmosférico en la estación meteorológica de Alcázar Del Rey, Cuenca (875 m.)



Fecha
DESCASC
Temp. máxima en grados centígrados (hora)
DESCASC
Temp. mínima en grados centígrados (hora)
DESCASC
Temp. media en grados centígrados
DESCASC
Racha de viento máxima en m/sg (hora)
DESCASC
Velocidad máxima media en intervalos de 10 minutos(hora)
DESCASC
Precipitaciones diarias en mm
DESCASC
Precipitaciones de 00:00 a 06:00 en mm
DESCASC
Precipitaciones de 06:00 a 12:00 en mm
DESCASC
Precipitaciones de 12:00 a 18:00 en mm
DESCASC
Precipitaciones de 18:00 a 24:00 en mm
DESCASC
26-04-2019 15.5 (17:10) 2.6 (00:00) 9 9.72 (00:30) 4.44 (00:20) 0 0 0 0 0
27-04-2019 20.4 (18:10) 2 (00:00) 11.2 6.39 (11:00) 3.33 (10:50) 0 0 0 0 0
28-04-2019 22.9 (18:20) 6.8 (00:00) 14.8 5.56 (13:50) 3.61 (04:20) 0 0 0 0 0
29-04-2019 24 (16:40) 6.6 (00:00) 15.3 8.06 (16:50) 4.17 (15:50) 0 0 0 0 0
30-04-2019 24.7 (17:20) 7 (00:00) 15.9 9.72 (16:40) 4.17 (16:00) 0 0 0 0 0
01-05-2019 25.6 (17:00) 8.1 (00:00) 16.9 10 (22:30) 5.83 (22:30) 0 0 0 0 0
02-05-2019 22.6 (16:40) 8.6 (07:20) 15.6 11.11 (19:40) 6.11 (19:30) 10.2 0 0 0 10.2
03-05-2019 17.1 (13:10) 6.4 (00:00) 11.8 13.61 (14:00) 7.78 (14:20) 0 0 0 0 0
04-05-2019 20.4 (18:40) 1.3 (00:00) 10.8 10.28 (18:20) 5.28 (16:50) 0 0 0 0 0
05-05-2019 20.9 (18:40) 4.9 (00:00) 12.9 11.67 (16:30) 4.17 (02:20) 0 0 0 0 0
06-05-2019 23.8 (18:30) 4 (00:00) 13.9 7.5 (14:50) 3.61 (14:00) 0 0 0 0 0
07-05-2019 23.2 (18:20) 9.6 (00:00) 16.4 11.11 (17:00) 5.83 (19:00) 0 0 0 0 0
08-05-2019 17.9 (18:20) 12.8 (00:00) 15.3 15 (14:40) 8.61 (15:40) 0 0 0 0 0
09-05-2019 21.4 (16:20) 8.2 (00:00) 14.8 13.33 (16:20) 6.39 (02:10) 0 0 0 0 0
10-05-2019 23.9 (17:10) 13.3 (00:00) 18.6 10 (18:20) 5.28 (20:20) 0.6 0.6 0 0 0
11-05-2019 25.4 (17:30) 10 (00:00) 17.7 7.78 (17:50) 4.44 (17:50) 0 0 0 0 0
12-05-2019 24.9 (18:10) 5.3 (00:00) 15.1 9.72 (00:40) 5.56 (00:40) 0 0 0 0 0
13-05-2019 26.5 (18:10) 7.5 (00:00) 17 12.22 (22:40) 5.83 (10:20) 0 0 0 0 0
14-05-2019 27.6 (18:20) 8.4 (00:00) 18 11.67 (02:40) 6.39 (01:00) 0 0 0 0 0
15-05-2019 30.2 (17:10) 5.8 (00:00) 18 8.89 (16:10) 4.17 (14:40) 0 0 0 0 0
16-05-2019 29 (16:20) 10 (00:00) 19.5 16.39 (23:59) 8.06 (23:59) 0 0 0 0 0
17-05-2019 18.7 (00:00) 7.3 (00:00) 13 17.5 (00:40) 11.67 (00:40) 0 0 0 0 0
18-05-2019 17.2 (17:10) 4.7 (00:00) 11 9.44 (16:10) 5.28 (16:50) 0 0 0 0 0
19-05-2019 19.2 (18:10) 5 (00:00) 12.1 8.61 (15:10) 5 (14:00) 0 0 0 0 0
20-05-2019 22 (16:20) 2.9 (07:00) 12.5 7.5 (16:40) 3.33 (16:00) 0 0 0 0 0
21-05-2019 22.7 (18:50) 9.2 (04:00) 16 8.61 (23:00) 4.44 (23:00) 0 0 0 0 0
22-05-2019 26.5 (18:30) 8.3 (06:30) 17.4 8.89 (00:40) 4.44 (00:20) 0 0 0 0 0
23-05-2019 27.6 (17:10) 11.9 (07:10) 19.8 9.44 (17:00) 4.17 (16:20) 0 0 0 0 0

Gráficas

Temp. máximas Temp. mínimas Temp. medias Precipitaciones Rachas de viento máximas Velocidades máximas media en intervalos de 10 minutos

Datos horarios

Fecha y hora oficial Temperatura (ºC) Velocidad del viento (km/h) Dirección del viento Racha (km/h) Dirección de racha Precipitación (mm) Presión (hPa) Tendencia (hPa) Humedad (%)
2019-05-25 23:00:00 14.2 11 Nordeste 22 Norte 0 -- -- 54
2019-05-25 22:00:00 15.3 8 Nordeste 24 Nordeste 0 -- -- 52
2019-05-25 21:00:00 18.6 15 Norte 28 Nordeste 0 -- -- 43
2019-05-25 20:00:00 20.3 15 Norte 30 Norte 0 -- -- 40
2019-05-25 19:00:00 21.3 13 Norte 31 Norte 0 -- -- 37
2019-05-25 18:00:00 21.8 14 Norte 26 Nordeste 0 -- -- 36
2019-05-25 17:00:00 21 13 Nordeste 27 Nordeste 0 -- -- 39
2019-05-25 16:00:00 20.6 18 Nordeste 34 Este 0 -- -- 39
2019-05-25 15:00:00 19.6 16 Norte 32 Nordeste 0 -- -- 42
2019-05-25 14:00:00 18.1 17 Norte 33 Nordeste 0 -- -- 45
2019-05-25 13:00:00 17.1 16 Nordeste 34 Norte 0 -- -- 47
2019-05-25 12:00:00 16 20 Nordeste 35 Norte 0 -- -- 51
2019-05-25 11:00:00 15 20 Nordeste 37 Norte 0 -- -- 53
2019-05-25 10:00:00 13.3 20 Nordeste 38 Nordeste 0 -- -- 58
2019-05-25 09:00:00 12 16 Nordeste 29 Nordeste 0 -- -- 63
2019-05-25 08:00:00 9.8 4 Noroeste 9 Norte 0 -- -- 74
2019-05-25 07:00:00 7.4 4 Nordeste 10 Nordeste 0 -- -- 82
2019-05-25 06:00:00 6.3 2 Nordeste 8 Nordeste 0 -- -- 82
2019-05-25 05:00:00 7.3 5 Nordeste 11 Norte 0 -- -- 83
2019-05-25 04:00:00 8 5 Norte 12 Norte 0 -- -- 80
2019-05-25 03:00:00 8.7 3 Norte 16 Nordeste 0 -- -- 77
2019-05-25 02:00:00 9.3 9 Nordeste 20 Nordeste 0 -- -- 74
2019-05-25 01:00:00 9.9 13 Nordeste 24 Norte 0 -- -- 72
2019-05-25 00:00:00 11.4 9 Norte 18 Nordeste 0 -- -- 64
2019-05-24 23:00:00 12.7 10 Nordeste 21 Nordeste 0 -- -- 59
2019-05-24 22:00:00 13.8 8 Nordeste 21 Nordeste 0 -- -- 56
2019-05-24 21:00:00 16 14 Nordeste 30 Este 0 -- -- 50
2019-05-24 20:00:00 18 19 Nordeste 40 Nordeste 0 -- -- 47
2019-05-24 19:00:00 19 15 Nordeste 36 Nordeste 0 -- -- 45
2019-05-24 18:00:00 19.6 21 Nordeste 46 Norte 0 -- -- 43
2019-05-24 17:00:00 19.8 21 Nordeste 42 Nordeste 0 -- -- 42
2019-05-24 16:00:00 20 25 Nordeste 43 Norte 0 -- -- 44
2019-05-24 15:00:00 20.5 24 Nordeste 44 Nordeste 0 -- -- 45
2019-05-24 14:00:00 20.7 21 Nordeste 37 Nordeste 0 -- -- 46
2019-05-24 13:00:00 20.1 18 Norte 34 Norte 0 -- -- 50
2019-05-24 12:00:00 18.5 18 Norte 36 Norte 0 -- -- 58
2019-05-24 11:00:00 17.7 19 Norte 36 Nordeste 0 -- -- 59
2019-05-24 10:00:00 15.2 19 Norte 33 Norte 0 -- -- 69
2019-05-24 09:00:00 14.1 9 Nordeste 26 Norte 0 -- -- 74
2019-05-24 08:00:00 13.4 9 Norte 15 Nordeste 0 -- -- 71
2019-05-24 07:00:00 13.2 5 Nordeste 9 Norte 0 -- -- 67
2019-05-24 06:00:00 15.1 4 Noroeste 14 Noroeste 0 -- -- 50
2019-05-24 05:00:00 14.6 3 Oeste 9 Oeste 0 -- -- 47
2019-05-24 04:00:00 14.3 0 Calma 12 Oeste 0 -- -- 50
2019-05-24 03:00:00 16.1 2 Oeste 6 Noroeste 0 -- -- 44
2019-05-24 02:00:00 16.5 0 Calma 12 Oeste 0 -- -- 43
2019-05-24 01:00:00 18 4 Oeste 13 Oeste 0 -- -- 41
2019-05-24 00:00:00 19.4 4 Oeste 8 Oeste 0 -- -- 41
2019-05-23 23:00:00 19.7 3 Sudoeste 12 Norte 0 -- -- 44
2019-05-23 22:00:00 21.9 0 Calma 10 Oeste 0 -- -- 40
2019-05-23 21:00:00 23.6 5 Oeste 16 Oeste 0 -- -- 34
2019-05-23 20:00:00 25.2 5 Sudoeste 16 Oeste 0 -- -- 32
2019-05-23 19:00:00 25.9 8 Oeste 31 Sudoeste 0 -- -- 31
2019-05-23 18:00:00 26.4 7 Sudoeste 26 Oeste 0 -- -- 30
2019-05-23 17:00:00 27.2 12 Oeste 34 Noroeste 0 -- -- 25
2019-05-23 16:00:00 26.7 9 Sudoeste 29 Oeste 0 -- -- 28
2019-05-23 15:00:00 25.6 9 Oeste 28 Oeste 0 -- -- 30
2019-05-23 14:00:00 25.4 9 Noroeste 24 Oeste 0 -- -- 30
2019-05-23 13:00:00 23.5 11 Oeste 22 Oeste 0 -- -- 38
2019-05-23 12:00:00 23.2 6 Sudoeste 18 Sudoeste 0 -- -- 38
2019-05-23 11:00:00 21.3 6 Sur 16 Sur 0 -- -- 44
2019-05-23 10:00:00 19.7 9 Sur 15 Sur 0 -- -- 48
2019-05-23 09:00:00 16.9 2 Sur 8 Sur 0 -- -- 60
2019-05-23 08:00:00 13.1 2 Sur 12 Sudeste 0 -- -- 71
2019-05-23 07:00:00 12 6 Sudeste 14 Sudeste 0 -- -- 74
2019-05-23 06:00:00 12.4 6 Sudeste 14 Sudeste 0 -- -- 72
2019-05-23 05:00:00 13 9 Sudeste 19 Sudeste 0 -- -- 69
2019-05-23 04:00:00 13 5 Sur 15 Sudeste 0 -- -- 66
2019-05-23 03:00:00 13.1 5 Sur 18 Sur 0 -- -- 61
2019-05-23 02:00:00 12.8 9 Sudeste 20 Este 0 -- -- 57
2019-05-23 01:00:00 13.3 0 Calma -- -- 0 -- -- 54
2019-05-23 00:00:00 14.7 0 Calma -- -- 0 -- -- 51
2019-05-22 23:00:00 17.3 0 Calma 4 Este 0 -- -- 43
2019-05-22 22:00:00 19.7 2 Este 6 Noroeste 0 -- -- 39
2019-05-22 21:00:00 23.3 4 Noroeste 15 Noroeste 0 -- -- 31
2019-05-22 20:00:00 24.5 8 Noroeste 26 Noroeste 0 -- -- 27
2019-05-22 19:00:00 25.9 5 Oeste 21 Oeste 0 -- -- 26
2019-05-22 18:00:00 25.5 9 Oeste 30 Oeste 0 -- -- 27
2019-05-22 17:00:00 25.9 11 Oeste 26 Oeste 0 -- -- 27
2019-05-22 16:00:00 24.7 11 Noroeste 25 Oeste 0 -- -- 29
2019-05-22 15:00:00 25.3 14 Oeste 31 Oeste 0 -- -- 29
2019-05-22 14:00:00 24.1 4 Oeste 21 Noroeste 0 -- -- 31
2019-05-22 13:00:00 23.7 5 Sur 13 Sudeste 0 -- -- 35
2019-05-22 12:00:00 22.6 5 Sudeste 12 Sur 0 -- -- 40
2019-05-22 11:00:00 20.3 5 Sur 14 Sudeste 0 -- -- 47
2019-05-22 10:00:00 17.9 7 Sudeste 14 Sudeste 0 -- -- 55
2019-05-22 09:00:00 14.3 9 Nordeste 15 Nordeste 0 -- -- 68
2019-05-22 08:00:00 10.8 8 Nordeste 12 Nordeste 0 -- -- 80
2019-05-22 07:00:00 8.5 7 Nordeste 15 Nordeste 0 -- -- 86
2019-05-22 06:00:00 8.8 3 Nordeste 9 Nordeste 0 -- -- 83
2019-05-22 05:00:00 10.2 3 Este 5 Este 0 -- -- 79
2019-05-22 04:00:00 10.4 0 Calma 9 Sudeste 0 -- -- 80
2019-05-22 03:00:00 10.5 3 Sudeste 12 Este 0 -- -- 79
2019-05-22 02:00:00 11.5 6 Sudeste 28 Sudeste 0 -- -- 77
2019-05-22 01:00:00 12.6 11 Sudeste 32 Sudeste 0 -- -- 74
2019-05-22 00:00:00 14 13 Sudeste 30 Sudeste 0 -- -- 69
2019-05-21 23:00:00 16.2 16 Sudeste 31 Sudeste 0 -- -- 54
2019-05-21 22:00:00 17.4 6 Sudeste 10 Este 0 -- -- 42
2019-05-21 21:00:00 19 5 Este 12 Norte 0 -- -- 44
2019-05-21 20:00:00 21.5 6 Norte 16 Oeste 0 -- -- 31
2019-05-21 19:00:00 22.7 11 Noroeste 22 Noroeste 0 -- -- 29
2019-05-21 18:00:00 22.1 10 Noroeste 18 Noroeste 0 -- -- 32
2019-05-21 17:00:00 22.5 10 Noroeste 19 Noroeste 0 -- -- 30
2019-05-21 16:00:00 21 7 Nordeste 11 Norte 0 -- -- 35
2019-05-21 15:00:00 20.3 4 Norte 21 Noroeste 0 -- -- 33
2019-05-21 14:00:00 21.2 9 Sur 30 Sudoeste 0 -- -- 32
2019-05-21 13:00:00 20.3 5 Oeste 17 Sudeste 0 -- -- 34
2019-05-21 12:00:00 19.2 5 Sur 14 Este 0 -- -- 40
2019-05-21 11:00:00 16.1 4 Sudeste 11 Sur 0 -- -- 48
2019-05-21 10:00:00 14.3 5 Sudeste 14 Sudeste 0 -- -- 59
2019-05-21 09:00:00 12.3 8 Este 15 Este 0 -- -- 66
2019-05-21 08:00:00 10.5 0 Calma 7 Este 0 -- -- 68
2019-05-21 07:00:00 9.9 4 Este 8 Este 0 -- -- 65
2019-05-21 06:00:00 9.3 4 Nordeste 8 Nordeste 0 -- -- 64
2019-05-21 05:00:00 9.8 5 Nordeste 15 Nordeste 0 -- -- 58
2019-05-21 04:00:00 9.2 4 Sudeste 8 Sudeste 0 -- -- 55
2019-05-21 03:00:00 10.1 0 Calma 5 Este 0 -- -- 55
2019-05-21 02:00:00 10.8 0 Calma 5 Oeste 0 -- -- 58
2019-05-21 01:00:00 12 0 Calma 3 Sur 0 -- -- 47
2019-05-21 00:00:00 13.1 0 Calma 2 Sudeste 0 -- -- 42
2019-05-20 23:00:00 14.4 0 Calma 2 Nordeste 0 -- -- 40
2019-05-20 22:00:00 15.8 2 Nordeste 7 Oeste 0 -- -- 35
2019-05-20 21:00:00 18.1 6 Noroeste 15 Noroeste 0 -- -- 29
2019-05-20 20:00:00 20 7 Noroeste 24 Oeste 0 -- -- 25
2019-05-20 19:00:00 21.5 6 Noroeste 23 Oeste 0 -- -- 21
2019-05-20 18:00:00 21.2 8 Sudoeste 22 Sudoeste 0 -- -- 23
2019-05-20 17:00:00 21 10 Oeste 27 Sudoeste 0 -- -- 25
2019-05-20 16:00:00 21.3 12 Sur 24 Sudoeste 0 -- -- 24
2019-05-20 15:00:00 20.9 6 Sur 24 Oeste 0 -- -- 27
2019-05-20 14:00:00 19.7 6 Sudeste 19 Sur 0 -- -- 28
2019-05-20 13:00:00 18.7 7 Sudoeste 18 Sudoeste 0 -- -- 30
2019-05-20 12:00:00 17.6 6 Nordeste 14 Este 0 -- -- 31
2019-05-20 11:00:00 15.4 3 Sudeste 11 Este 0 -- -- 44
2019-05-20 10:00:00 12.2 8 Nordeste 13 Nordeste 0 -- -- 59
2019-05-20 09:00:00 10.2 9 Nordeste 14 Nordeste 0 -- -- 66
2019-05-20 08:00:00 6.8 7 Nordeste 14 Nordeste 0 -- -- 82
2019-05-20 07:00:00 2.9 6 Nordeste 8 Nordeste 0 -- -- 85
2019-05-20 06:00:00 3.6 5 Nordeste 8 Nordeste 0 -- -- 80
2019-05-20 05:00:00 5.2 6 Este 8 Este 0 -- -- 79
2019-05-20 04:00:00 6.3 4 Este 10 Nordeste 0 -- -- 75
2019-05-20 03:00:00 6.7 4 Este 13 Nordeste 0 -- -- 73
2019-05-20 02:00:00 6.4 6 Nordeste 13 Nordeste 0 -- -- 73
2019-05-20 01:00:00 7.1 4 Nordeste 10 Nordeste 0 -- -- 68
2019-05-20 00:00:00 7 5 Nordeste 8 Nordeste 0 -- -- 69
2019-05-19 23:00:00 9.4 5 Nordeste 14 Norte 0 -- -- 60
2019-05-19 22:00:00 11.1 6 Nordeste 11 Nordeste 0 -- -- 52
2019-05-19 21:00:00 15.4 3 Norte 9 Noroeste 0 -- -- 41
2019-05-19 20:00:00 17 4 Noroeste 28 Sudoeste 0 -- -- 31
2019-05-19 19:00:00 19 8 Sudoeste 28 Oeste 0 -- -- 28
2019-05-19 18:00:00 19 12 Oeste 29 Sudoeste 0 -- -- 29
2019-05-19 17:00:00 17.8 13 Noroeste 28 Oeste 0 -- -- 30
2019-05-19 16:00:00 17.4 10 Oeste 31 Noroeste 0 -- -- 32
2019-05-19 15:00:00 17 13 Oeste 28 Oeste 0 -- -- 34
2019-05-19 14:00:00 17.1 18 Noroeste 30 Noroeste 0 -- -- 31
2019-05-19 13:00:00 15.1 15 Noroeste 28 Noroeste 0 -- -- 38
2019-05-19 12:00:00 14.7 12 Noroeste 23 Noroeste 0 -- -- 41
2019-05-19 11:00:00 13.4 6 Norte 19 Nordeste 0 -- -- 50
2019-05-19 10:00:00 11.8 12 Norte 21 Nordeste 0 -- -- 54
2019-05-19 09:00:00 7.5 0 Calma 4 Norte 0 -- -- 78
2019-05-19 08:00:00 5.4 2 Nordeste 6 Nordeste 0 -- -- 81
2019-05-19 07:00:00 5.4 4 Nordeste 6 Nordeste 0 -- -- 75
2019-05-19 06:00:00 5.6 0 Calma 3 Norte 0 -- -- 74
2019-05-19 05:00:00 6.3 0 Calma 2 Norte 0 -- -- 68
2019-05-19 04:00:00 6.3 0 Calma 6 Nordeste 0 -- -- 67
2019-05-19 03:00:00 7.1 3 Este 6 Nordeste 0 -- -- 64
2019-05-19 02:00:00 8.6 0 Calma 4 Norte 0 -- -- 56
2019-05-19 01:00:00 8.2 0 Calma 4 Norte 0 -- -- 55
2019-05-19 00:00:00 8.7 0 Calma 5 Noroeste 0 -- -- 53
2019-05-18 23:00:00 11.3 4 Norte 14 Norte 0 -- -- 46
2019-05-18 22:00:00 12.4 6 Noroeste 14 Noroeste 0 -- -- 42
2019-05-18 21:00:00 13.3 8 Noroeste 15 Noroeste 0 -- -- 39
2019-05-18 20:00:00 13.9 11 Noroeste 25 Norte 0 -- -- 37
2019-05-18 19:00:00 14.7 11 Noroeste 30 Noroeste 0 -- -- 33
2019-05-18 18:00:00 16.2 13 Noroeste 32 Oeste 0 -- -- 29
2019-05-18 17:00:00 16.8 14 Noroeste 34 Noroeste 0 -- -- 28
2019-05-18 16:00:00 16.5 18 Noroeste 33 Noroeste 0 -- -- 29
2019-05-18 15:00:00 15.5 15 Noroeste 34 Noroeste 0 -- -- 30
2019-05-18 14:00:00 15.1 15 Noroeste 30 Oeste 0 -- -- 30
2019-05-18 13:00:00 14.2 13 Oeste 29 Oeste 0 -- -- 35
2019-05-18 12:00:00 13.2 11 Noroeste 24 Noroeste 0 -- -- 38
2019-05-18 11:00:00 12 9 Nordeste 21 Nordeste 0 -- -- 44
2019-05-18 10:00:00 9.3 6 Norte 19 Noroeste 0 -- -- 60
2019-05-18 09:00:00 8.3 10 Noroeste 20 Noroeste 0 -- -- 61
2019-05-18 08:00:00 7.8 2 Noroeste 6 Noroeste 0 -- -- 68
2019-05-18 07:00:00 7.6 4 Nordeste 17 Nordeste 0 -- -- 68
2019-05-18 06:00:00 7.1 3 Sudeste 8 Oeste 0 -- -- 73
2019-05-18 05:00:00 6.4 2 Oeste 5 Oeste 0 -- -- 74
2019-05-18 04:00:00 5.3 0 Calma 5 Sudoeste 0 -- -- 82
2019-05-18 03:00:00 4.8 3 Nordeste 9 Sudeste 0 -- -- 80
2019-05-18 02:00:00 4.7 5 Nordeste 6 Nordeste 0 -- -- 78
2019-05-18 01:00:00 6.6 0 Calma 3 Este 0 -- -- 73
2019-05-18 00:00:00 8.4 0 Calma 4 Oeste 0 -- -- 64
2019-05-17 23:00:00 9.5 2 Oeste 5 Noroeste 0 -- -- 61
2019-05-17 22:00:00 11 3 Nordeste 9 Norte 0 -- -- 59
2019-05-17 21:00:00 12.9 4 Noroeste 19 Noroeste 0 -- -- 50
2019-05-17 20:00:00 13.8 10 Norte 24 Noroeste 0 -- -- 46
2019-05-17 19:00:00 14 11 Noroeste 25 Norte 0 -- -- 46
2019-05-17 18:00:00 14.4 17 Noroeste 39 Noroeste 0 -- -- 46
2019-05-17 17:00:00 13.9 21 Noroeste 37 Noroeste 0 -- -- 46
2019-05-17 16:00:00 13.1 17 Noroeste 35 Noroeste 0 -- -- 50
2019-05-17 15:00:00 13 19 Noroeste 40 Noroeste 0 -- -- 48
2019-05-17 14:00:00 13.4 21 Noroeste 47 Oeste 0 -- -- 47
2019-05-17 13:00:00 14.1 31 Oeste 54 Noroeste 0 -- -- 48
2019-05-17 12:00:00 13.6 35 Oeste 57 Noroeste 0 -- -- 50
2019-05-17 11:00:00 11.8 35 Oeste 56 Noroeste 0 -- -- 57
2019-05-17 10:00:00 10.1 26 Oeste 47 Oeste 0 -- -- 62
2019-05-17 09:00:00 8.8 29 Noroeste 52 Noroeste 0 -- -- 65
2019-05-17 08:00:00 7.5 15 Oeste 26 Oeste 0 -- -- 72
2019-05-17 07:00:00 7.4 12 Noroeste 31 Oeste 0 -- -- 72
2019-05-17 06:00:00 8.5 19 Oeste 42 Noroeste 0 -- -- 69
2019-05-17 05:00:00 9.1 24 Noroeste 39 Oeste 0 -- -- 67
2019-05-17 04:00:00 9.2 18 Oeste 35 Noroeste 0 -- -- 67
2019-05-17 03:00:00 9.9 17 Oeste 46 Oeste 0 -- -- 67
2019-05-17 02:00:00 11.9 23 Oeste 50 Oeste 0 -- -- 57
2019-05-17 01:00:00 13.9 30 Noroeste 63 Oeste 0 -- -- 53
2019-05-17 00:00:00 18.7 29 Oeste 59 Oeste 0 -- -- 39
2019-05-16 23:00:00 20.3 14 Oeste 53 Sudoeste 0 -- -- 42
2019-05-16 22:00:00 22.5 22 Sudoeste 44 Sudoeste 0 -- -- 29
2019-05-16 21:00:00 24 16 Sudoeste 36 Oeste 0 -- -- 22
2019-05-16 20:00:00 25.2 18 Sudoeste 40 Oeste 0 -- -- 25
2019-05-16 19:00:00 27.3 20 Sudoeste 43 Sur 0 -- -- 27
2019-05-16 18:00:00 28.5 16 Sudoeste 38 Sudoeste 0 -- -- 30
2019-05-16 17:00:00 28.6 10 Sudoeste 27 Sudoeste 0 -- -- 30
2019-05-16 16:00:00 28.3 13 Sudoeste 30 Sudoeste 0 -- -- 29
2019-05-16 15:00:00 26.9 11 Sudoeste 27 Sudoeste 0 -- -- 34
2019-05-16 14:00:00 24.8 14 Sur 28 Sur 0 -- -- 42
2019-05-16 13:00:00 22.6 14 Sur 24 Sur 0 -- -- 44
2019-05-16 12:00:00 20.1 14 Sudeste 30 Sudeste 0 -- -- 54
2019-05-16 11:00:00 17.5 14 Sudeste 31 Sudeste 0 -- -- 64
2019-05-16 10:00:00 15.5 14 Sudeste 30 Sudeste 0 -- -- 70
2019-05-16 09:00:00 13.8 15 Sudeste 29 Este 0 -- -- 77
2019-05-16 08:00:00 11.3 14 Sudeste 30 Sudeste 0 -- -- 90
2019-05-16 07:00:00 10.1 14 Sudeste 30 Sudeste 0 -- -- 91
2019-05-16 06:00:00 10.2 8 Sudeste 21 Sur 0 -- -- 87
2019-05-16 05:00:00 11.1 12 Sudeste 18 Sudeste 0 -- -- 83
2019-05-16 04:00:00 11.5 9 Sudeste 17 Sudeste 0 -- -- 80
2019-05-16 03:00:00 11.9 8 Sudeste 23 Este 0 -- -- 79
2019-05-16 02:00:00 13 10 Sudeste 24 Sudeste 0 -- -- 69
2019-05-16 01:00:00 14.8 13 Este 21 Sudeste 0 -- -- 41
2019-05-16 00:00:00 15.9 4 Nordeste 13 Oeste 0 -- -- 37
2019-05-15 23:00:00 18.4 0 Calma 6 Este 0 -- -- 38
2019-05-15 22:00:00 20.8 3 Nordeste 11 Este 0 -- -- 38
2019-05-15 21:00:00 25.5 2 Nordeste 14 Noroeste 0 -- -- 26
2019-05-15 20:00:00 28.8 8 Norte 25 Noroeste 0 -- -- 18
2019-05-15 19:00:00 29.4 10 Noroeste 24 Oeste 0 -- -- 17
2019-05-15 18:00:00 29.5 11 Noroeste 23 Noroeste 0 -- -- 17
2019-05-15 17:00:00 29.8 13 Norte 32 Noroeste 0 -- -- 17
2019-05-15 16:00:00 29.1 12 Norte 27 Noroeste 0 -- -- 18
2019-05-15 15:00:00 28.7 13 Norte 32 Noroeste 0 -- -- 20
2019-05-15 14:00:00 27.3 9 Norte 20 Nordeste 0 -- -- 27
2019-05-15 13:00:00 26 10 Nordeste 21 Nordeste 0 -- -- 29
2019-05-15 12:00:00 24.3 11 Nordeste 17 Nordeste 0 -- -- 32
2019-05-15 11:00:00 22.4 5 Norte 12 Nordeste 0 -- -- 31
2019-05-15 10:00:00 18.6 8 Nordeste 12 Norte 0 -- -- 50
2019-05-15 09:00:00 15.4 3 Nordeste 7 Nordeste 0 -- -- 54
2019-05-15 08:00:00 9.7 4 Norte 8 Nordeste 0 -- -- 70
2019-05-15 07:00:00 6.1 5 Nordeste 7 Nordeste 0 -- -- 76
2019-05-15 06:00:00 7.5 3 Sudeste 5 Nordeste 0 -- -- 73
2019-05-15 05:00:00 8.2 3 Nordeste 5 Nordeste 0 -- -- 71
2019-05-15 04:00:00 9.5 0 Calma 5 Sudoeste 0 -- -- 68
2019-05-15 03:00:00 11.7 3 Sur 4 Sur 0 -- -- 59
2019-05-15 02:00:00 12 0 Calma 2 Oeste 0 -- -- 62
2019-05-15 01:00:00 13.2 0 Calma 4 Sur 0 -- -- 57
2019-05-15 00:00:00 14.5 0 Calma 4 Oeste 0 -- -- 56
2019-05-14 23:00:00 16.2 0 Calma 3 Sur 0 -- -- 51
2019-05-14 22:00:00 20.6 3 Sur 7 Sur 0 -- -- 36
2019-05-14 21:00:00 25.1 0 Calma 8 Sudoeste 0 -- -- 29
2019-05-14 20:00:00 26.8 4 Oeste 17 Sudoeste 0 -- -- 24
2019-05-14 19:00:00 27.1 9 Sudoeste 22 Sudoeste 0 -- -- 24
2019-05-14 18:00:00 27.5 5 Sudoeste 22 Sudeste 0 -- -- 23
2019-05-14 17:00:00 26.3 10 Sur 18 Sur 0 -- -- 25
2019-05-14 16:00:00 24.7 8 Nordeste 18 Sur 0 -- -- 25
2019-05-14 15:00:00 24.8 8 Sur 23 Este 0 -- -- 26
2019-05-14 14:00:00 23.6 10 Sur 23 Sudoeste 0 -- -- 28
2019-05-14 13:00:00 21.9 11 Sudeste 28 Sur 0 -- -- 32
2019-05-14 12:00:00 20.7 17 Sudeste 35 Sudeste 0 -- -- 31
2019-05-14 11:00:00 18.6 15 Sudeste 33 Sudeste 0 -- -- 37
2019-05-14 10:00:00 16.1 18 Sudeste 35 Este 0 -- -- 41
2019-05-14 09:00:00 14.2 8 Sudeste 23 Sudeste 0 -- -- 49
2019-05-14 08:00:00 10 5 Este 14 Este 0 -- -- 54
2019-05-14 07:00:00 8.5 2 Norte 18 Este 0 -- -- 53
2019-05-14 06:00:00 8.9 2 Este 13 Sudeste 0 -- -- 42
2019-05-14 05:00:00 10 7 Sudeste 19 Sudeste 0 -- -- 36
2019-05-14 04:00:00 10.2 8 Sudeste 29 Este 0 -- -- 35
2019-05-14 03:00:00 11 13 Sudeste 42 Sudeste 0 -- -- 36
2019-05-14 02:00:00 12 20 Sudeste 37 Sudeste 0 -- -- 33
2019-05-14 01:00:00 13.2 23 Sudeste 41 Sudeste 0 -- -- 39
2019-05-14 00:00:00 15.1 21 Sudeste 35 Sudeste 0 -- -- 43
2019-05-13 23:00:00 16.8 16 Sudeste 44 Este 0 -- -- 44
2019-05-13 22:00:00 16.4 6 Nordeste 13 Norte 0 -- -- 38
2019-05-13 21:00:00 20.5 7 Nordeste 15 Norte 0 -- -- 34
2019-05-13 20:00:00 25 9 Norte 19 Nordeste 0 -- -- 22
2019-05-13 19:00:00 26.2 10 Norte 19 Norte 0 -- -- 19
2019-05-13 18:00:00 26.2 10 Norte 21 Nordeste 0 -- -- 17
2019-05-13 17:00:00 25.5 11 Nordeste 24 Nordeste 0 -- -- 22
2019-05-13 16:00:00 24.5 12 Norte 22 Noroeste 0 -- -- 20
2019-05-13 15:00:00 23.4 10 Nordeste 28 Este 0 -- -- 21
2019-05-13 14:00:00 22.1 11 Norte 25 Norte 0 -- -- 21
2019-05-13 13:00:00 20.1 15 Norte 27 Norte 0 -- -- 21
2019-05-13 12:00:00 18 12 Norte 27 Nordeste 0 -- -- 26
2019-05-13 11:00:00 16 15 Nordeste 32 Norte 0 -- -- 33
2019-05-13 10:00:00 13.9 18 Norte 30 Nordeste 0 -- -- 31
2019-05-13 09:00:00 11.9 14 Norte 23 Norte 0 -- -- 37
2019-05-13 08:00:00 9.4 5 Nordeste 24 Nordeste 0 -- -- 41
2019-05-13 07:00:00 7.8 11 Nordeste 26 Nordeste 0 -- -- 43
2019-05-13 06:00:00 8.9 13 Nordeste 27 Nordeste 0 -- -- 39
2019-05-13 05:00:00 9.7 15 Nordeste 21 Nordeste 0 -- -- 38
2019-05-13 04:00:00 9 10 Nordeste 22 Norte 0 -- -- 45
2019-05-13 03:00:00 10 12 Nordeste 21 Nordeste 0 -- -- 42
2019-05-13 02:00:00 11.2 12 Nordeste 20 Nordeste 0 -- -- 42
2019-05-13 01:00:00 10.3 8 Este 14 Nordeste 0 -- -- 45
2019-05-13 00:00:00 11.4 8 Nordeste 15 Nordeste 0 -- -- 43
2019-05-12 23:00:00 13.9 8 Nordeste 17 Nordeste 0 -- -- 33
2019-05-12 22:00:00 14.4 8 Nordeste 13 Nordeste 0 -- -- 36
2019-05-12 21:00:00 19.6 6 Nordeste 22 Nordeste 0 -- -- 26
2019-05-12 20:00:00 22.7 10 Nordeste 25 Norte 0 -- -- 20
2019-05-12 19:00:00 24.4 13 Norte 23 Norte 0 -- -- 19
2019-05-12 18:00:00 24.8 12 Norte 26 Norte 0 -- -- 17
2019-05-12 17:00:00 24.4 15 Nordeste 24 Norte 0 -- -- 17
2019-05-12 16:00:00 23.8 10 Nordeste 24 Nordeste 0 -- -- 20
2019-05-12 15:00:00 22.3 13 Norte 25 Norte 0 -- -- 18
2019-05-12 14:00:00 21 13 Nordeste 22 Norte 0 -- -- 26
2019-05-12 13:00:00 19.4 8 Nordeste 21 Nordeste 0 -- -- 24
2019-05-12 12:00:00 17.3 10 Nordeste 23 Este 0 -- -- 32
2019-05-12 11:00:00 15.4 11 Nordeste 23 Nordeste 0 -- -- 39
2019-05-12 10:00:00 12 14 Nordeste 24 Nordeste 0 -- -- 42
2019-05-12 09:00:00 9.3 11 Nordeste 18 Nordeste 0 -- -- 59
2019-05-12 08:00:00 6.6 8 Este 20 Nordeste 0 -- -- 73
2019-05-12 07:00:00 5.5 12 Nordeste 22 Nordeste 0 -- -- 80
2019-05-12 06:00:00 6.4 9 Nordeste 18 Norte 0 -- -- 75
2019-05-12 05:00:00 6.8 10 Nordeste 21 Nordeste 0 -- -- 74
2019-05-12 04:00:00 8.3 8 Este 18 Norte 0 -- -- 67
2019-05-12 03:00:00 9.9 13 Norte 23 Nordeste 0 -- -- 62
2019-05-12 02:00:00 11.2 8 Nordeste 26 Nordeste 0 -- -- 61
2019-05-12 01:00:00 12.9 15 Nordeste 35 Nordeste 0 -- -- 58
2019-05-12 00:00:00 14.4 15 Nordeste 26 Norte 0 -- -- 57
2019-05-11 23:00:00 14.6 8 Nordeste 20 Norte 0 -- -- 46
2019-05-11 22:00:00 16.1 10 Nordeste 21 Nordeste 0 -- -- 44
2019-05-11 21:00:00 21 12 Norte 20 Noroeste 0 -- -- 33
2019-05-11 20:00:00 23.9 13 Noroeste 25 Noroeste 0 -- -- 22
2019-05-11 19:00:00 24.5 14 Noroeste 26 Norte 0 -- -- 23
2019-05-11 18:00:00 24.7 13 Norte 28 Noroeste 0 -- -- 25
2019-05-11 17:00:00 24.5 8 Nordeste 18 Norte 0 -- -- 36
2019-05-11 16:00:00 24.1 7 Nordeste 23 Nordeste 0 -- -- 31
2019-05-11 15:00:00 23.3 11 Nordeste 26 Nordeste 0 -- -- 39
2019-05-11 14:00:00 22.7 10 Nordeste 19 Nordeste 0 -- -- 41
2019-05-11 13:00:00 21.3 11 Nordeste 26 Este 0 -- -- 44
2019-05-11 12:00:00 19.8 10 Nordeste 19 Nordeste 0 -- -- 49
2019-05-11 11:00:00 18.4 9 Nordeste 17 Este 0 -- -- 61
2019-05-11 10:00:00 16.5 8 Nordeste 14 Norte 0 -- -- 70
2019-05-11 09:00:00 14.5 5 Norte 8 Norte 0 -- -- 74
2019-05-11 08:00:00 11.9 0 Calma 2 Sudoeste 0 -- -- 84
2019-05-11 07:00:00 10.5 3 Oeste 7 Oeste 0 -- -- 86
2019-05-11 06:00:00 11.1 3 Oeste 7 Oeste 0 -- -- 86
2019-05-11 05:00:00 11.3 0 Calma 6 Oeste 0 -- -- 84
2019-05-11 04:00:00 12.2 2 Noroeste 5 Oeste 0 -- -- 79
2019-05-11 03:00:00 13.2 8 Nordeste 14 Nordeste 0 -- -- 78
2019-05-11 02:00:00 13.6 3 Sudoeste 17 Sudoeste 0 -- -- 79
2019-05-11 01:00:00 14.7 11 Oeste 20 Noroeste 0 -- -- 74
2019-05-11 00:00:00 15.6 4 Oeste 17 Oeste 0 -- -- 69
2019-05-10 23:00:00 16.9 5 Oeste 15 Oeste 0 -- -- 65
2019-05-10 22:00:00 18.2 8 Oeste 26 Oeste 0 -- -- 61
2019-05-10 21:00:00 19.8 13 Oeste 33 Oeste 0 -- -- 55
2019-05-10 20:00:00 22.3 17 Oeste 33 Oeste 0 -- -- 48
2019-05-10 19:00:00 23.2 15 Oeste 36 Sudoeste 0 -- -- 47
2019-05-10 18:00:00 23.5 15 Oeste 31 Sudoeste 0 -- -- 45
2019-05-10 17:00:00 23.7 12 Oeste 31 Oeste 0 -- -- 46
2019-05-10 16:00:00 22.8 14 Oeste 31 Oeste 0 -- -- 47
2019-05-10 15:00:00 21.1 13 Sudoeste 27 Sudoeste 0 -- -- 52
2019-05-10 14:00:00 21 11 Sudoeste 23 Oeste 0 -- -- 56
2019-05-10 13:00:00 18.9 10 Oeste 26 Oeste 0 -- -- 63
2019-05-10 12:00:00 17.2 10 Oeste 28 Oeste 0 -- -- 70
2019-05-10 11:00:00 16.5 10 Sudoeste 25 Oeste 0 -- -- 74
2019-05-10 10:00:00 13.9 10 Oeste 24 Noroeste 0 -- -- 86
2019-05-10 09:00:00 13.4 10 Oeste 27 Sudoeste 0 -- -- 89
2019-05-10 08:00:00 13.3 9 Sudoeste 20 Oeste 0 -- -- 90
2019-05-10 07:00:00 13.5 8 Sudoeste 19 Sudoeste 0 -- -- 90
2019-05-10 06:00:00 13.7 9 Oeste 27 Oeste 0 -- -- 90
2019-05-10 05:00:00 13.7 11 Oeste 28 Oeste 0 -- -- 91
2019-05-10 04:00:00 13.8 13 Oeste 30 Oeste 0 -- -- 91
2019-05-10 03:00:00 14 8 Oeste 33 Oeste 0 -- -- 92
2019-05-10 02:00:00 14.3 12 Oeste 33 Oeste 0.6 -- -- 92
2019-05-10 01:00:00 15.3 9 Oeste 22 Sudoeste 0 -- -- 86
2019-05-10 00:00:00 15.8 8 Oeste 36 Oeste 0 -- -- 82
2019-05-09 23:00:00 17 17 Sudoeste 33 Oeste 0 -- -- 70
2019-05-09 22:00:00 16.8 9 Sudoeste 22 Sudoeste 0 -- -- 69
2019-05-09 21:00:00 17.6 13 Sudoeste 31 Oeste 0 -- -- 65
2019-05-09 20:00:00 18.2 19 Sudoeste 39 Oeste 0 -- -- 62
2019-05-09 19:00:00 18.7 20 Sudoeste 36 Oeste 0 -- -- 60
2019-05-09 18:00:00 19 13 Oeste 32 Sudoeste 0 -- -- 57
2019-05-09 17:00:00 19.8 18 Oeste 48 Sudoeste 0 -- -- 53
2019-05-09 16:00:00 20.9 17 Oeste 42 Oeste 0 -- -- 50
2019-05-09 15:00:00 20.1 17 Sudoeste 32 Sudoeste 0 -- -- 51
2019-05-09 14:00:00 18.6 14 Oeste 32 Oeste 0 -- -- 46
2019-05-09 13:00:00 17.4 17 Oeste 32 Noroeste 0 -- -- 48
2019-05-09 12:00:00 15.7 17 Oeste 33 Oeste 0 -- -- 51
2019-05-09 11:00:00 14.9 15 Oeste 30 Oeste 0 -- -- 57
2019-05-09 10:00:00 13.4 13 Oeste 25 Oeste 0 -- -- 59
2019-05-09 09:00:00 11.7 10 Oeste 20 Oeste 0 -- -- 69
2019-05-09 08:00:00 9.3 5 Sudoeste 12 Oeste 0 -- -- 74
2019-05-09 07:00:00 8.3 6 Oeste 19 Oeste 0 -- -- 79
2019-05-09 06:00:00 8.6 7 Oeste 23 Oeste 0 -- -- 82
2019-05-09 05:00:00 9.5 18 Oeste 32 Oeste 0 -- -- 82
2019-05-09 04:00:00 10.2 10 Oeste 33 Oeste 0 -- -- 85
2019-05-09 03:00:00 11.2 15 Oeste 37 Oeste 0 -- -- 83
2019-05-09 02:00:00 12.2 18 Oeste 39 Noroeste 0 -- -- 81
2019-05-09 01:00:00 13 17 Oeste 36 Sudoeste 0 -- -- 80
2019-05-09 00:00:00 13.4 15 Oeste 36 Oeste 0 -- -- 80
2019-05-08 23:00:00 13.7 19 Oeste 35 Sudoeste 0 -- -- 81
2019-05-08 22:00:00 13.7 14 Sudoeste 35 Sudoeste 0 -- -- 84
2019-05-08 21:00:00 14.4 18 Sudoeste 39 Oeste 0 -- -- 78
2019-05-08 20:00:00 14.6 26 Sudoeste 51 Oeste 0 -- -- 79
2019-05-08 19:00:00 16.1 26 Sudoeste 51 Oeste 0 -- -- 71
2019-05-08 18:00:00 17.8 26 Oeste 50 Oeste 0 -- -- 62
2019-05-08 17:00:00 16.8 25 Oeste 49 Sudoeste 0 -- -- 66
2019-05-08 16:00:00 17.1 29 Oeste 52 Oeste 0 -- -- 63
2019-05-08 15:00:00 16.6 24 Sudoeste 54 Sudoeste 0 -- -- 68
2019-05-08 14:00:00 16.3 21 Sudoeste 45 Sudoeste 0 -- -- 67
2019-05-08 13:00:00 15.2 22 Sudoeste 44 Oeste 0 -- -- 70
2019-05-08 12:00:00 15 22 Sudoeste 40 Oeste 0 -- -- 72
2019-05-08 11:00:00 14.5 19 Oeste 41 Sudoeste 0 -- -- 73
2019-05-08 10:00:00 14.5 16 Sudoeste 37 Oeste 0 -- -- 74
2019-05-08 09:00:00 13.8 11 Sudoeste 23 Sudoeste 0 -- -- 80
2019-05-08 08:00:00 12.9 7 Sudoeste 17 Sur 0 -- -- 85
2019-05-08 07:00:00 13 6 Sudoeste 13 Sur 0 -- -- 89
2019-05-08 06:00:00 13.1 4 Sudoeste 20 Sudoeste 0 -- -- 87
2019-05-08 05:00:00 13.3 6 Oeste 13 Sudoeste 0 -- -- 84
2019-05-08 04:00:00 13.7 10 Oeste 19 Sudoeste 0 -- -- 80
2019-05-08 03:00:00 14.1 6 Oeste 20 Oeste 0 -- -- 77
2019-05-08 02:00:00 14.6 6 Oeste 24 Oeste 0 -- -- 74
2019-05-08 01:00:00 15.1 8 Oeste 21 Oeste 0 -- -- 72
2019-05-08 00:00:00 15.2 6 Oeste 16 Oeste 0 -- -- 71
2019-05-07 23:00:00 16 6 Oeste 14 Oeste 0 -- -- 65
2019-05-07 22:00:00 17.1 6 Oeste 12 Noroeste 0 -- -- 60
2019-05-07 21:00:00 18.7 8 Oeste 22 Oeste 0 -- -- 53
2019-05-07 20:00:00 21.1 11 Oeste 36 Oeste 0 -- -- 45
2019-05-07 19:00:00 22.2 21 Oeste 38 Noroeste 0 -- -- 39
2019-05-07 18:00:00 23 20 Oeste 39 Oeste 0 -- -- 37
2019-05-07 17:00:00 22.4 20 Oeste 40 Sudoeste 0 -- -- 37
2019-05-07 16:00:00 21.8 17 Oeste 30 Oeste 0 -- -- 40
2019-05-07 15:00:00 21.1 10 Oeste 29 Oeste 0 -- -- 43
2019-05-07 14:00:00 20.1 11 Sudoeste 24 Sudoeste 0 -- -- 48
2019-05-07 13:00:00 18.8 12 Sudoeste 27 Oeste 0 -- -- 53
2019-05-07 12:00:00 17.9 12 Sudoeste 26 Sudoeste 0 -- -- 58
2019-05-07 11:00:00 17 8 Sur 19 Sudoeste 0 -- -- 61
2019-05-07 10:00:00 14.8 5 Sur 12 Sur 0 -- -- 67
2019-05-07 09:00:00 12.6 5 Sur 10 Sur 0 -- -- 71
2019-05-07 08:00:00 9.9 6 Sur 10 Sur 0 -- -- 78
2019-05-07 07:00:00 9.6 3 Sur 11 Sur 0 -- -- 77
2019-05-07 06:00:00 10.4 6 Sur 11 Sur 0 -- -- 72
2019-05-07 05:00:00 10.9 5 Sur 10 Sudeste 0 -- -- 72
2019-05-07 04:00:00 12.3 4 Sudeste 15 Noroeste 0 -- -- 67
2019-05-07 03:00:00 13.2 7 Oeste 15 Oeste 0 -- -- 61
2019-05-07 02:00:00 14.1 9 Oeste 19 Oeste 0 -- -- 56
2019-05-07 01:00:00 14.5 5 Oeste 17 Oeste 0 -- -- 53
2019-05-07 00:00:00 14.4 5 Oeste 10 Oeste 0 -- -- 55
2019-05-06 23:00:00 16.1 3 Oeste 9 Oeste 0 -- -- 47
2019-05-06 22:00:00 17.8 4 Oeste 9 Oeste 0 -- -- 43
2019-05-06 21:00:00 20.2 5 Oeste 19 Oeste 0 -- -- 42
2019-05-06 20:00:00 23.2 7 Oeste 25 Oeste 0 -- -- 33
2019-05-06 19:00:00 23.7 11 Oeste 23 Oeste 0 -- -- 29
2019-05-06 18:00:00 23.4 6 Oeste 21 Noroeste 0 -- -- 31
2019-05-06 17:00:00 22.9 8 Sudoeste 26 Oeste 0 -- -- 31
2019-05-06 16:00:00 23.1 12 Oeste 27 Oeste 0 -- -- 30
2019-05-06 15:00:00 22.5 11 Sudoeste 27 Oeste 0 -- -- 31
2019-05-06 14:00:00 21.7 13 Oeste 26 Noroeste 0 -- -- 33
2019-05-06 13:00:00 20.8 10 Oeste 22 Sudoeste 0 -- -- 32
2019-05-06 12:00:00 20.1 9 Oeste 17 Oeste 0 -- -- 30
2019-05-06 11:00:00 18.6 2 Nordeste 6 Nordeste 0 -- -- 34
2019-05-06 10:00:00 16 3 Este 7 Este 0 -- -- 34
2019-05-06 09:00:00 11.8 0 Calma 4 Nordeste 0 -- -- 50
2019-05-06 08:00:00 6.7 0 Calma 9 Nordeste 0 -- -- 68
2019-05-06 07:00:00 4 5 Este 12 Nordeste 0 -- -- 75
2019-05-06 06:00:00 4.8 10 Nordeste 13 Nordeste 0 -- -- 70
2019-05-06 05:00:00 5.4 8 Nordeste 12 Nordeste 0 -- -- 66
2019-05-06 04:00:00 6.6 9 Nordeste 15 Nordeste 0 -- -- 63
2019-05-06 03:00:00 7.6 9 Nordeste 15 Nordeste 0 -- -- 60
2019-05-06 02:00:00 9.2 9 Nordeste 15 Nordeste 0 -- -- 55
2019-05-06 01:00:00 9.1 7 Norte 13 Norte 0 -- -- 64
2019-05-06 00:00:00 10.2 0 Calma 5 Noroeste 0 -- -- 62
2019-05-05 23:00:00 11.6 0 Calma 5 Nordeste 0 -- -- 57
2019-05-05 22:00:00 13.3 4 Nordeste 8 Nordeste 0 -- -- 51
2019-05-05 21:00:00 17 4 Nordeste 13 Nordeste 0 -- -- 44
2019-05-05 20:00:00 19.5 6 Norte 21 Noroeste 0 -- -- 33
2019-05-05 19:00:00 20.6 12 Noroeste 31 Oeste 0 -- -- 30
2019-05-05 18:00:00 20.6 13 Noroeste 31 Oeste 0 -- -- 30
2019-05-05 17:00:00 20.4 8 Noroeste 42 Noroeste 0 -- -- 32
2019-05-05 16:00:00 19.4 9 Noroeste 28 Noroeste 0 -- -- 32
2019-05-05 15:00:00 19 10 Noroeste 24 Oeste 0 -- -- 33
2019-05-05 14:00:00 17.1 7 Nordeste 23 Norte 0 -- -- 42
2019-05-05 13:00:00 15.2 9 Nordeste 24 Nordeste 0 -- -- 36
2019-05-05 12:00:00 13.2 13 Nordeste 23 Nordeste 0 -- -- 36
2019-05-05 11:00:00 11.9 9 Norte 21 Norte 0 -- -- 44
2019-05-05 10:00:00 9.6 13 Norte 22 Nordeste 0 -- -- 54
2019-05-05 09:00:00 8.1 13 Nordeste 24 Nordeste 0 -- -- 64
2019-05-05 08:00:00 6.1 6 Nordeste 15 Nordeste 0 -- -- 75
2019-05-05 07:00:00 5 8 Nordeste 21 Nordeste 0 -- -- 81
2019-05-05 06:00:00 5.4 8 Norte 21 Nordeste 0 -- -- 80
2019-05-05 05:00:00 6.5 9 Nordeste 23 Nordeste 0 -- -- 76
2019-05-05 04:00:00 7.1 15 Norte 27 Nordeste 0 -- -- 73
2019-05-05 03:00:00 8.5 12 Nordeste 28 Nordeste 0 -- -- 68
2019-05-05 02:00:00 9.8 15 Nordeste 29 Nordeste 0 -- -- 62
2019-05-05 01:00:00 11.1 12 Norte 22 Norte 0 -- -- 51
2019-05-05 00:00:00 12.1 9 Norte 18 Nordeste 0 -- -- 50
2019-05-04 23:00:00 12.8 8 Nordeste 18 Norte 0 -- -- 49
2019-05-04 22:00:00 15.4 8 Noroeste 20 Noroeste 0 -- -- 42
2019-05-04 21:00:00 17.2 10 Noroeste 24 Noroeste 0 -- -- 37
2019-05-04 20:00:00 19.2 15 Noroeste 34 Noroeste 0 -- -- 33
2019-05-04 19:00:00 20.1 17 Oeste 37 Noroeste 0 -- -- 30
2019-05-04 18:00:00 20.1 14 Noroeste 35 Oeste 0 -- -- 31
2019-05-04 17:00:00 19.5 15 Noroeste 31 Noroeste 0 -- -- 33
2019-05-04 16:00:00 19.2 12 Noroeste 30 Oeste 0 -- -- 31
2019-05-04 15:00:00 17.9 12 Noroeste 32 Noroeste 0 -- -- 33
2019-05-04 14:00:00 16.7 16 Noroeste 31 Noroeste 0 -- -- 35
2019-05-04 13:00:00 15.2 15 Noroeste 34 Noroeste 0 -- -- 37
2019-05-04 12:00:00 12.5 8 Nordeste 23 Norte 0 -- -- 52
2019-05-04 11:00:00 10.1 13 Nordeste 24 Norte 0 -- -- 58
2019-05-04 10:00:00 8.5 12 Norte 22 Nordeste 0 -- -- 69
2019-05-04 09:00:00 6.2 13 Nordeste 24 Norte 0 -- -- 76
2019-05-04 08:00:00 3.5 6 Nordeste 12 Nordeste 0 -- -- 85
2019-05-04 07:00:00 1.9 6 Nordeste 11 Norte 0 -- -- 86
2019-05-04 06:00:00 2.2 9 Nordeste 12 Nordeste 0 -- -- 88
2019-05-04 05:00:00 3.5 8 Norte 14 Nordeste 0 -- -- 84
2019-05-04 04:00:00 4 7 Nordeste 15 Nordeste 0 -- -- 83
2019-05-04 03:00:00 4.3 6 Nordeste 14 Nordeste 0 -- -- 82
2019-05-04 02:00:00 5.3 8 Nordeste 15 Nordeste 0 -- -- 81
2019-05-04 01:00:00 5.9 7 Nordeste 17 Nordeste 0 -- -- 79
2019-05-04 00:00:00 6.7 6 Nordeste 14 Norte 0 -- -- 76
2019-05-03 23:00:00 8.5 5 Nordeste 17 Norte 0 -- -- 70
2019-05-03 22:00:00 8.9 6 Nordeste 14 Nordeste 0 -- -- 71
2019-05-03 21:00:00 12.2 9 Norte 23 Nordeste 0 -- -- 55
2019-05-03 20:00:00 14 13 Nordeste 33 Norte 0 -- -- 49
2019-05-03 19:00:00 15 15 Norte 33 Norte 0 -- -- 45
2019-05-03 18:00:00 15.2 20 Nordeste 40 Norte 0 -- -- 45
2019-05-03 17:00:00 15 21 Nordeste 41 Nordeste 0 -- -- 51
2019-05-03 16:00:00 15.3 21 Nordeste 41 Norte 0 -- -- 56
2019-05-03 15:00:00 14.8 24 Nordeste 46 Norte 0 -- -- 56
2019-05-03 14:00:00 14.5 27 Norte 49 Norte 0 -- -- 59
2019-05-03 13:00:00 16.9 9 Norte 18 Nordeste 0 -- -- 56
2019-05-03 12:00:00 15.3 9 Este 16 Nordeste 0 -- -- 58
2019-05-03 11:00:00 14.4 4 Este 17 Sudeste 0 -- -- 60
2019-05-03 10:00:00 12.8 9 Este 18 Este 0 -- -- 62
2019-05-03 09:00:00 11.7 6 Sudeste 14 Este 0 -- -- 69
2019-05-03 08:00:00 8.6 4 Nordeste 15 Este 0 -- -- 83
2019-05-03 07:00:00 8.4 8 Este 14 Este 0 -- -- 82
2019-05-03 06:00:00 7.9 3 Sudeste 10 Este 0 -- -- 87
2019-05-03 05:00:00 8.5 0 Calma 18 Sudeste 0 -- -- 86
2019-05-03 04:00:00 9.5 10 Sudeste 32 Sudeste 0 -- -- 83
2019-05-03 03:00:00 10.3 15 Sudeste 30 Sudeste 0 -- -- 81
2019-05-03 02:00:00 10.9 9 Sudeste 28 Sudeste 0 -- -- 88
2019-05-03 01:00:00 11.7 16 Sudeste 32 Este 0 -- -- 87
2019-05-03 00:00:00 12 15 Sudeste 27 Sudeste 0 -- -- 83
2019-05-02 23:00:00 11.6 4 Sudeste 9 Sudeste 0 -- -- 84
2019-05-02 22:00:00 13 7 Sudeste 14 Sudeste 0 -- -- 82
2019-05-02 21:00:00 14 8 Sur 21 Sudeste 0.2 -- -- 84
2019-05-02 20:00:00 13.3 18 Nordeste 40 Nordeste 9.4 -- -- 85
2019-05-02 19:00:00 19.2 15 Sudeste 27 Sudeste 0.6 -- -- 62
2019-05-02 18:00:00 22 14 Sur 25 Sur 0 -- -- 45
2019-05-02 17:00:00 22.6 11 Sur 22 Sur 0 -- -- 45
2019-05-02 16:00:00 20.9 3 Este 21 Sur 0 -- -- 50
2019-05-02 15:00:00 21.5 9 Sur 27 Sur 0 -- -- 47
2019-05-02 14:00:00 21.1 8 Sur 21 Sudeste 0 -- -- 50
2019-05-02 13:00:00 20.2 8 Este 17 Sudeste 0 -- -- 57
2019-05-02 12:00:00 19.1 6 Este 19 Este 0 -- -- 54
2019-05-02 11:00:00 17.7 10 Sudeste 20 Sudeste 0 -- -- 61
2019-05-02 10:00:00 15.7 10 Este 18 Este 0 -- -- 67
2019-05-02 09:00:00 11.8 10 Nordeste 16 Nordeste 0 -- -- 86
2019-05-02 08:00:00 9.5 9 Nordeste 18 Nordeste 0 -- -- 91
2019-05-02 07:00:00 9.5 3 Norte 9 Este 0 -- -- 89
2019-05-02 06:00:00 10.1 3 Sudeste 14 Sudeste 0 -- -- 88
2019-05-02 05:00:00 9.8 2 Sudeste 14 Sudeste 0 -- -- 89
2019-05-02 04:00:00 9.9 5 Nordeste 21 Este -- -- -- 89
2019-05-02 03:00:00 11.6 10 Sudeste 23 Sudeste 0 -- -- 81
2019-05-02 02:00:00 12 12 Sudeste 28 Sudeste 0 -- -- 78
2019-05-02 01:00:00 12.4 9 Sudeste 24 Sudeste 0 -- -- 77
2019-05-02 00:00:00 13 12 Sudeste 24 Sudeste 0 -- -- 77
2019-05-01 23:00:00 14.3 13 Sudeste 36 Sudeste 0 -- -- 72
2019-05-01 22:00:00 17.4 16 Sudeste 36 Sudeste 0 -- -- 54
2019-05-01 21:00:00 21.1 4 Noroeste 8 Noroeste 0 -- -- 43
2019-05-01 20:00:00 21.8 6 Noroeste 18 Noroeste 0 -- -- 42
2019-05-01 19:00:00 23.4 12 Oeste 23 Noroeste 0 -- -- 39
2019-05-01 18:00:00 23.9 6 Oeste 25 Oeste 0 -- -- 39
2019-05-01 17:00:00 25.6 14 Oeste 27 Oeste 0 -- -- 37
2019-05-01 16:00:00 25 10 Oeste 23 Oeste 0 -- -- 40
2019-05-01 15:00:00 23.9 5 Oeste 16 Oeste 0 -- -- 41
2019-05-01 14:00:00 23 6 Sur 18 Sudoeste 0 -- -- 46
2019-05-01 13:00:00 21.4 5 Sur 14 Este 0 -- -- 54
2019-05-01 12:00:00 19.6 8 Sudeste 16 Este 0 -- -- 58
2019-05-01 11:00:00 17.7 7 Sudeste 15 Este 0 -- -- 66
2019-05-01 10:00:00 15.7 8 Sudeste 16 Sudeste 0 -- -- 66
2019-05-01 09:00:00 13.3 4 Este 7 Este 0 -- -- 77
2019-05-01 08:00:00 8.6 4 Este 6 Nordeste 0 -- -- 92
2019-05-01 07:00:00 9 3 Nordeste 6 Este 0 -- -- 89
2019-05-01 06:00:00 9.9 2 Este 13 Este 0 -- -- 87
2019-05-01 05:00:00 10.7 0 Calma 13 Sur 0 -- -- 84
2019-05-01 04:00:00 11.7 6 Sudeste 18 Sudeste 0 -- -- 83
2019-05-01 03:00:00 12.4 11 Sudeste 23 Sudeste 0 -- -- 81
2019-05-01 02:00:00 13.4 13 Sudeste 26 Sudeste 0 -- -- 79
2019-05-01 01:00:00 14.2 11 Sudeste 30 Sudeste 0 -- -- 75
2019-05-01 00:00:00 13.3 5 Nordeste 9 Nordeste 0 -- -- 72
2019-04-30 23:00:00 14 7 Nordeste 13 Nordeste 0 -- -- 66
2019-04-30 22:00:00 16.2 5 Este 9 Nordeste 0 -- -- 56
2019-04-30 21:00:00 20.7 0 Calma 12 Noroeste 0 -- -- 41
2019-04-30 20:00:00 23.1 5 Noroeste 23 Oeste 0 -- -- 37
2019-04-30 19:00:00 23.7 11 Noroeste 26 Noroeste 0 -- -- 32
2019-04-30 18:00:00 24.6 9 Oeste 24 Noroeste 0 -- -- 36
2019-04-30 17:00:00 24.6 11 Oeste 35 Oeste 0 -- -- 37
2019-04-30 16:00:00 24 15 Noroeste 29 Oeste 0 -- -- 38
2019-04-30 15:00:00 22.6 5 Norte 15 Nordeste 0 -- -- 38
2019-04-30 14:00:00 22.3 7 Nordeste 18 Nordeste 0 -- -- 44
2019-04-30 13:00:00 20.8 4 Este 10 Nordeste 0 -- -- 49
2019-04-30 12:00:00 18.9 5 Norte 18 Nordeste 0 -- -- 62
2019-04-30 11:00:00 17 8 Nordeste 14 Este 0 -- -- 70
2019-04-30 10:00:00 15.9 3 Nordeste 7 Nordeste 0 -- -- 72
2019-04-30 09:00:00 12.9 3 Nordeste 5 Nordeste 0 -- -- 83
2019-04-30 08:00:00 8.4 2 Este 7 Este 0 -- -- 95
2019-04-30 07:00:00 7.1 5 Este 7 Este 0 -- -- 92
2019-04-30 06:00:00 8.6 0 Calma 6 Sudeste 0 -- -- 88
2019-04-30 05:00:00 10.1 3 Sur 14 Sudeste 0 -- -- 87
2019-04-30 04:00:00 10.7 7 Sudeste 14 Este 0 -- -- 86
2019-04-30 03:00:00 10.4 5 Sudeste 17 Este 0 -- -- 83
2019-04-30 02:00:00 11.7 11 Sudeste 19 Sudeste 0 -- -- 77
2019-04-30 01:00:00 11.8 4 Noroeste 10 Norte 0 -- -- 69
2019-04-30 00:00:00 12.7 0 Calma 2 Este 0 -- -- 67
2019-04-29 23:00:00 14.2 0 Calma 4 Este 0 -- -- 58
2019-04-29 22:00:00 16.3 0 Calma 10 Noroeste 0 -- -- 55
2019-04-29 21:00:00 20.3 6 Noroeste 11 Noroeste 0 -- -- 40
2019-04-29 20:00:00 22.5 4 Oeste 18 Oeste 0 -- -- 40
2019-04-29 19:00:00 23.7 6 Oeste 21 Oeste 0 -- -- 34
2019-04-29 18:00:00 22.8 8 Noroeste 29 Noroeste 0 -- -- 36
2019-04-29 17:00:00 23.8 10 Noroeste 29 Noroeste 0 -- -- 31
2019-04-29 16:00:00 23.9 12 Oeste 27 Noroeste 0 -- -- 32
2019-04-29 15:00:00 23.6 10 Oeste 28 Oeste 0 -- -- 29
2019-04-29 14:00:00 22 6 Sudeste 15 Oeste 0 -- -- 41
2019-04-29 13:00:00 21.3 5 Sur 10 Sur 0 -- -- 46
2019-04-29 12:00:00 20 2 Sur 8 Noroeste 0 -- -- 50
2019-04-29 11:00:00 17.2 5 Norte 12 Nordeste 0 -- -- 60
2019-04-29 10:00:00 14.9 7 Norte 14 Nordeste 0 -- -- 65
2019-04-29 09:00:00 11.4 9 Nordeste 14 Nordeste 0 -- -- 75
2019-04-29 08:00:00 7.6 8 Nordeste 12 Este 0 -- -- 86
2019-04-29 07:00:00 7 3 Nordeste 7 Este 0 -- -- 85
2019-04-29 06:00:00 7.2 2 Este 6 Este 0 -- -- 83
2019-04-29 05:00:00 7.3 5 Nordeste 7 Nordeste 0 -- -- 80
2019-04-29 04:00:00 8.1 4 Este 11 Nordeste 0 -- -- 79
2019-04-29 03:00:00 9.6 9 Nordeste 15 Nordeste 0 -- -- 78
2019-04-29 02:00:00 9.4 6 Nordeste 9 Este 0 -- -- 76
2019-04-29 01:00:00 10.7 0 Calma 11 Nordeste 0 -- -- 75
2019-04-29 00:00:00 12 3 Sudeste 5 Nordeste 0 -- -- 72
2019-04-28 23:00:00 14.4 0 Calma 3 Sur 0 -- -- 65
2019-04-28 22:00:00 16.6 0 Calma 5 Oeste 0 -- -- 56
2019-04-28 21:00:00 19.5 3 Oeste 12 Oeste 0 -- -- 49
2019-04-28 20:00:00 21.9 8 Oeste 15 Noroeste 0 -- -- 42
2019-04-28 19:00:00 22.7 6 Oeste 15 Oeste 0 -- -- 41
2019-04-28 18:00:00 22.6 5 Sudoeste 16 Oeste 0 -- -- 39
2019-04-28 17:00:00 22.7 5 Noroeste 14 Sudoeste 0 -- -- 37
2019-04-28 16:00:00 21.8 3 Este 17 Este 0 -- -- 39
2019-04-28 15:00:00 21.9 8 Sur 14 Sur 0 -- -- 40
2019-04-28 14:00:00 21 4 Sudoeste 20 Este 0 -- -- 44
2019-04-28 13:00:00 19.9 8 Sur 15 Este 0 -- -- 45
2019-04-28 12:00:00 18.8 5 Sudeste 14 Sudeste 0 -- -- 49
2019-04-28 11:00:00 17.5 3 Sudeste 16 Este 0 -- -- 55
2019-04-28 10:00:00 15 10 Este 16 Este 0 -- -- 64
2019-04-28 09:00:00 11.5 7 Nordeste 12 Nordeste 0 -- -- 80
2019-04-28 08:00:00 7.8 10 Nordeste 14 Nordeste 0 -- -- 89
2019-04-28 07:00:00 6.9 10 Nordeste 15 Nordeste 0 -- -- 92
2019-04-28 06:00:00 7.4 11 Nordeste 15 Nordeste 0 -- -- 89
2019-04-28 05:00:00 8.1 11 Nordeste 16 Nordeste 0 -- -- 86
2019-04-28 04:00:00 8.4 12 Nordeste 17 Nordeste 0 -- -- 85
2019-04-28 03:00:00 8.5 9 Nordeste 17 Nordeste 0 -- -- 83
2019-04-28 02:00:00 8.5 6 Nordeste 8 Nordeste 0 -- -- 80
2019-04-28 01:00:00 9.6 0 Calma 3 Este 0 -- -- 74
2019-04-28 00:00:00 10.2 0 Calma 5 Nordeste 0 -- -- 71
2019-04-27 23:00:00 12.2 0 Calma 4 Sudoeste 0 -- -- 64
2019-04-27 22:00:00 14 2 Noroeste 4 Oeste 0 -- -- 59
2019-04-27 21:00:00 16.8 0 Calma 14 Noroeste 0 -- -- 49
2019-04-27 20:00:00 19.5 7 Oeste 16 Noroeste 0 -- -- 40
2019-04-27 19:00:00 20 7 Oeste 19 Noroeste 0 -- -- 42
2019-04-27 18:00:00 20.2 10 Oeste 21 Oeste 0 -- -- 42
2019-04-27 17:00:00 19.9 8 Oeste 17 Noroeste 0 -- -- 42
2019-04-27 16:00:00 18.9 3 Sudoeste 12 Oeste 0 -- -- 46
2019-04-27 15:00:00 18.2 3 Oeste 11 Nordeste 0 -- -- 46
2019-04-27 14:00:00 16.5 5 Nordeste 13 Nordeste 0 -- -- 48
2019-04-27 13:00:00 15.1 5 Nordeste 14 Nordeste 0 -- -- 44
2019-04-27 12:00:00 13.9 6 Norte 17 Nordeste 0 -- -- 56
2019-04-27 11:00:00 12.4 12 Nordeste 23 Nordeste 0 -- -- 63
2019-04-27 10:00:00 10.6 8 Nordeste 12 Nordeste 0 -- -- 64
2019-04-27 09:00:00 9 4 Sudeste 9 Este 0 -- -- 70
2019-04-27 08:00:00 4 5 Este 9 Nordeste 0 -- -- 87
2019-04-27 07:00:00 2.2 5 Nordeste 8 Nordeste 0 -- -- 89
2019-04-27 06:00:00 2.6 5 Este 9 Este 0 -- -- 88
2019-04-27 05:00:00 3.1 5 Nordeste 6 Nordeste 0 -- -- 83
2019-04-27 04:00:00 3.2 3 Nordeste 4 Nordeste 0 -- -- 86
2019-04-27 03:00:00 3.7 2 Nordeste 5 Nordeste 0 -- -- 85
2019-04-27 02:00:00 4.1 0 Calma 6 Norte 0 -- -- 85
2019-04-27 01:00:00 4.6 2 Norte 4 Norte 0 -- -- 82
2019-04-27 00:00:00 6.3 0 Calma 3 Sudoeste 0 -- -- 80
2019-04-26 23:00:00 7.9 2 Sur 4 Sur 0 -- -- 73
2019-04-26 22:00:00 9.8 0 Calma 5 Noroeste 0 -- -- 66
2019-04-26 21:00:00 12.4 4 Noroeste 14 Noroeste 0 -- -- 51
2019-04-26 20:00:00 14.3 7 Oeste 15 Oeste 0 -- -- 47
2019-04-26 19:00:00 15.2 8 Oeste 22 Oeste 0 -- -- 42
2019-04-26 18:00:00 14.6 4 Noroeste 24 Oeste 0 -- -- 45
2019-04-26 17:00:00 15.2 12 Oeste 24 Oeste 0 -- -- 48
2019-04-26 16:00:00 13.7 7 Noroeste 23 Noroeste 0 -- -- 51
2019-04-26 15:00:00 13.2 7 Oeste 14 Nordeste 0 -- -- 51
2019-04-26 14:00:00 11.3 4 Nordeste 9 Oeste 0 -- -- 64
2019-04-26 13:00:00 11 6 Sudoeste 17 Noroeste 0 -- -- 63
2019-04-26 12:00:00 11 10 Oeste 24 Noroeste 0 -- -- 66
2019-04-26 11:00:00 9.7 16 Noroeste 29 Noroeste 0 -- -- 69
2019-04-26 10:00:00 7.6 4 Oeste 9 Oeste 0 -- -- 85
2019-04-26 09:00:00 4.2 4 Noroeste 17 Oeste 0 -- -- 96
2019-04-26 08:00:00 3.1 10 Oeste 22 Oeste 0 -- -- 95
2019-04-26 07:00:00 3 5 Oeste 16 Oeste 0 -- -- 92
2019-04-26 06:00:00 3.8 7 Oeste 16 Oeste 0 -- -- 91
2019-04-26 05:00:00 4.2 7 Oeste 15 Oeste 0 -- -- 89
2019-04-26 04:00:00 4.4 6 Oeste 20 Oeste 0 -- -- 88
2019-04-26 03:00:00 5 6 Oeste 23 Sudoeste 0 -- -- 85
2019-04-26 02:00:00 5.6 8 Sudoeste 19 Oeste 0 -- -- 84
2019-04-26 01:00:00 6 8 Oeste 35 Oeste 0 -- -- 82
2019-04-26 00:00:00 6.5 17 Oeste 37 Oeste 0 -- -- 80